createdAt,value
2017-12-16T07:17:26.596Z,93.00
2017-12-16T07:19:59.238Z,93.00
2017-12-16T07:22:31.172Z,93.00
2017-12-16T07:25:03.045Z,93.10
2017-12-16T07:27:35.136Z,93.00
2017-12-16T07:30:07.007Z,93.20
2017-12-16T07:32:38.932Z,93.30
2017-12-16T07:35:10.808Z,93.20
2017-12-16T07:37:42.696Z,93.30
2017-12-16T07:40:15.336Z,93.20
2017-12-16T07:42:47.219Z,93.20
2017-12-16T07:45:19.095Z,93.30
2017-12-16T07:47:51.743Z,93.20
2017-12-16T07:50:23.624Z,93.20
2017-12-16T07:52:57.155Z,93.20
2017-12-16T07:55:29.028Z,93.20
2017-12-16T07:58:01.172Z,93.20
2017-12-16T08:00:33.048Z,93.10
2017-12-16T08:03:04.972Z,93.30
2017-12-16T08:05:37.607Z,93.80
2017-12-16T08:08:09.513Z,93.50
2017-12-16T08:10:42.147Z,93.20
2017-12-16T08:13:14.083Z,93.20
2017-12-16T08:15:45.956Z,93.20
2017-12-16T08:18:17.879Z,93.20
2017-12-16T08:20:50.511Z,93.10
2017-12-16T08:23:22.416Z,93.10
2017-12-16T08:25:55.052Z,93.00
2017-12-16T08:28:26.975Z,93.00
2017-12-16T08:30:58.843Z,93.00
2017-12-16T08:33:30.727Z,93.00
2017-12-16T08:36:02.857Z,93.00
2017-12-16T08:38:34.776Z,93.10
2017-12-16T08:41:06.651Z,92.80
2017-12-16T08:43:38.564Z,92.90
2017-12-16T08:46:10.431Z,92.70
2017-12-16T08:48:42.359Z,92.70
2017-12-16T08:51:14.240Z,92.70
2017-12-16T08:53:46.171Z,92.80
2017-12-16T08:56:18.803Z,92.50
2017-12-16T08:58:50.727Z,92.50
2017-12-16T09:01:22.616Z,92.40
2017-12-16T09:03:54.532Z,92.10
2017-12-16T09:06:27.176Z,91.80
2017-12-16T09:08:59.060Z,91.80
2017-12-16T09:11:31.690Z,92.10
2017-12-16T09:14:03.584Z,91.80
2017-12-16T09:16:35.453Z,91.60
2017-12-16T09:19:08.110Z,91.90
2017-12-16T09:21:39.984Z,92.00
2017-12-16T09:24:11.871Z,91.60
2017-12-16T09:26:44.519Z,91.80
2017-12-16T09:29:16.439Z,91.80
2017-12-16T09:31:48.308Z,91.10
2017-12-16T09:34:20.216Z,91.20
2017-12-16T09:36:52.084Z,90.70
2017-12-16T09:39:24.772Z,90.40
2017-12-16T09:41:57.402Z,90.60
2017-12-16T09:44:29.324Z,90.60
2017-12-16T09:47:01.200Z,90.60
2017-12-16T09:49:33.140Z,91.10
2017-12-16T09:52:05.008Z,90.80
2017-12-16T09:54:36.940Z,90.80
2017-12-16T09:57:09.576Z,91.10
2017-12-16T09:59:41.484Z,91.10
2017-12-16T10:02:14.120Z,90.90
2017-12-16T10:04:46.044Z,90.90
2017-12-16T10:07:17.923Z,91.10
2017-12-16T10:09:49.836Z,90.50
2017-12-16T10:12:22.476Z,90.10
2017-12-16T10:14:54.396Z,90.10
2017-12-16T10:17:26.272Z,90.20
2017-12-16T10:19:58.171Z,90.30
2017-12-16T10:22:30.044Z,90.20
2017-12-16T10:25:01.963Z,90.30
2017-12-16T10:27:33.831Z,90.30
2017-12-16T10:30:05.759Z,90.00
2017-12-16T10:32:37.656Z,90.00
2017-12-16T10:35:09.548Z,89.20
2017-12-16T10:37:41.427Z,89.10
2017-12-16T10:40:14.122Z,88.80
2017-12-16T10:42:45.992Z,88.80
2017-12-16T10:45:17.876Z,87.90
2017-12-16T10:47:49.747Z,87.00
2017-12-16T10:50:21.632Z,86.20
2017-12-16T10:52:54.276Z,89.20
2017-12-16T10:55:26.165Z,89.10
2017-12-16T10:57:58.036Z,88.30
2017-12-16T11:00:30.741Z,88.50
2017-12-16T11:03:02.612Z,88.40
2017-12-16T11:05:34.499Z,88.40
2017-12-16T11:08:06.376Z,87.70
2017-12-16T11:10:38.301Z,88.20
2017-12-16T11:13:10.173Z,88.70
2017-12-16T11:15:42.059Z,88.20
2017-12-16T11:18:14.713Z,87.90
2017-12-16T11:20:46.631Z,87.80
2017-12-16T11:23:18.507Z,88.70
2017-12-16T11:25:50.408Z,88.50
2017-12-16T11:28:22.284Z,88.20
2017-12-16T11:30:54.221Z,88.30
2017-12-16T11:33:26.091Z,87.60
2017-12-16T11:35:58.305Z,87.10
2017-12-16T11:38:30.180Z,86.80
2017-12-16T11:41:02.132Z,87.10
2017-12-16T11:43:33.996Z,86.70
2017-12-16T11:46:05.908Z,87.00
2017-12-16T11:48:37.784Z,86.90
2017-12-16T11:51:10.447Z,86.50
2017-12-16T11:53:42.313Z,86.50
2017-12-16T11:56:14.507Z,87.00
2017-12-16T11:58:46.392Z,87.40
2017-12-16T12:01:18.275Z,87.90
2017-12-16T12:03:50.144Z,86.60
2017-12-16T12:06:22.071Z,86.80
2017-12-16T12:08:53.941Z,86.50
2017-12-16T12:11:25.832Z,87.80
2017-12-16T12:13:57.704Z,86.90
2017-12-16T12:16:29.648Z,86.30
2017-12-16T12:19:01.531Z,86.70
2017-12-16T12:21:34.216Z,86.70
2017-12-16T12:24:06.857Z,86.20
2017-12-16T12:26:38.757Z,86.10
2017-12-16T12:29:11.400Z,86.30
2017-12-16T12:31:43.362Z,86.20
2017-12-16T12:34:15.231Z,85.90
2017-12-16T12:36:47.188Z,86.60
2017-12-16T12:39:19.060Z,86.70
2017-12-16T12:41:50.948Z,87.00
2017-12-16T12:44:22.819Z,87.20
2017-12-16T12:46:54.745Z,87.50
2017-12-16T12:49:26.612Z,87.10
2017-12-16T12:51:59.304Z,87.30
2017-12-16T12:54:31.935Z,85.90
2017-12-16T12:57:04.071Z,85.80
2017-12-16T12:59:35.943Z,86.30
2017-12-16T13:02:07.832Z,85.70
2017-12-16T13:04:39.712Z,86.10
2017-12-16T13:07:13.207Z,86.90
2017-12-16T13:09:45.836Z,87.30
2017-12-16T13:12:17.736Z,86.90
2017-12-16T13:14:49.611Z,86.20
2017-12-16T13:17:22.307Z,87.80
2017-12-16T13:19:54.180Z,87.20
2017-12-16T13:22:26.083Z,87.30
2017-12-16T13:24:57.967Z,87.80
2017-12-16T13:27:30.662Z,87.70
2017-12-16T13:30:03.290Z,88.20
2017-12-16T13:32:35.192Z,88.20
2017-12-16T13:35:07.883Z,88.90
2017-12-16T13:37:40.565Z,89.00
2017-12-16T13:40:13.191Z,89.00
2017-12-16T13:42:45.140Z,89.00
2017-12-16T13:45:17.010Z,88.70
2017-12-16T13:47:48.891Z,88.70
2017-12-16T13:50:20.768Z,88.50
2017-12-16T13:52:53.463Z,88.50
2017-12-16T13:55:25.335Z,88.40
2017-12-16T13:57:57.256Z,88.00
2017-12-16T14:00:29.128Z,87.90
2017-12-16T14:03:01.821Z,87.20
2017-12-16T14:05:34.452Z,86.80
2017-12-16T14:08:06.371Z,86.80
2017-12-16T14:10:38.247Z,87.30
2017-12-16T14:13:10.183Z,87.50
2017-12-16T14:15:42.054Z,87.80
2017-12-16T14:18:13.944Z,88.20
2017-12-16T14:20:45.811Z,87.50
2017-12-16T14:23:17.746Z,87.80
2017-12-16T14:25:49.618Z,87.90
2017-12-16T14:28:21.560Z,87.70
2017-12-16T14:30:53.464Z,87.30
2017-12-16T14:33:25.348Z,86.80
2017-12-16T14:35:57.990Z,87.70
2017-12-16T14:38:29.920Z,87.70
2017-12-16T14:41:01.788Z,86.70
2017-12-16T14:43:33.704Z,86.30
2017-12-16T14:46:06.336Z,86.40
2017-12-16T14:48:38.229Z,86.30
2017-12-16T14:51:10.099Z,86.80
2017-12-16T14:53:42.783Z,87.40
2017-12-16T14:56:15.411Z,87.60
2017-12-16T14:58:47.320Z,87.60
2017-12-16T15:01:19.952Z,87.60
2017-12-16T15:03:52.600Z,87.80
2017-12-16T15:06:24.468Z,87.10
2017-12-16T15:08:56.376Z,87.60
2017-12-16T15:11:28.246Z,88.00
2017-12-16T15:14:00.179Z,87.80
2017-12-16T15:16:32.043Z,87.70
2017-12-16T15:19:04.740Z,88.10
2017-12-16T15:21:36.615Z,88.00
2017-12-16T15:24:08.527Z,87.80
2017-12-16T15:26:40.404Z,89.00
2017-12-16T15:29:12.285Z,89.10
2017-12-16T15:31:44.148Z,89.30
2017-12-16T15:34:16.051Z,89.70
2017-12-16T15:36:47.916Z,90.30
2017-12-16T15:39:19.847Z,90.20
2017-12-16T15:41:52.488Z,89.60
2017-12-16T15:44:24.396Z,89.60
2017-12-16T15:46:56.269Z,90.30
2017-12-16T15:49:28.175Z,89.90
2017-12-16T15:52:00.039Z,90.00
2017-12-16T15:54:31.927Z,89.90
2017-12-16T15:57:04.559Z,90.10
2017-12-16T15:59:36.447Z,90.10
2017-12-16T16:02:08.320Z,90.20
2017-12-16T16:04:40.994Z,90.20
2017-12-16T16:07:13.632Z,90.30
2017-12-16T16:09:45.553Z,90.30
2017-12-16T16:12:17.422Z,90.60
2017-12-16T16:14:49.348Z,90.60
2017-12-16T16:17:21.222Z,90.70
2017-12-16T16:19:53.879Z,90.90
2017-12-16T16:22:25.752Z,90.90
2017-12-16T16:24:58.451Z,91.40
2017-12-16T16:27:30.319Z,91.40
2017-12-16T16:30:02.216Z,90.90
2017-12-16T16:32:34.088Z,91.50
2017-12-16T16:35:06.032Z,91.50
2017-12-16T16:37:37.896Z,91.90
2017-12-16T16:40:09.807Z,92.00
2017-12-16T16:42:41.683Z,91.90
2017-12-16T16:45:13.611Z,92.10
2017-12-16T16:47:46.254Z,92.30
2017-12-16T16:50:18.157Z,92.30
2017-12-16T16:52:50.804Z,92.00
2017-12-16T16:55:22.812Z,92.00
2017-12-16T16:57:55.468Z,92.70
2017-12-16T17:00:28.168Z,92.90
2017-12-16T17:03:00.035Z,92.90
2017-12-16T17:05:31.942Z,93.20
2017-12-16T17:08:03.811Z,93.20
2017-12-16T17:10:35.731Z,93.20
2017-12-16T17:13:07.624Z,93.50
2017-12-16T17:15:39.544Z,93.50
2017-12-16T17:18:11.444Z,93.40
2017-12-16T17:20:43.351Z,93.40
2017-12-16T17:23:15.240Z,93.50
2017-12-16T17:25:47.123Z,93.30
2017-12-16T17:28:19.000Z,93.20
2017-12-16T17:30:50.945Z,93.30
2017-12-16T17:33:22.828Z,93.50
2017-12-16T17:35:54.712Z,93.50
2017-12-16T17:38:26.588Z,93.50
2017-12-16T17:40:58.476Z,93.20
2017-12-16T17:43:30.355Z,93.50
2017-12-16T17:46:02.274Z,93.50
2017-12-16T17:48:34.146Z,93.80
2017-12-16T17:51:06.279Z,93.90
2017-12-16T17:53:38.164Z,93.80
2017-12-16T17:56:10.091Z,93.70
2017-12-16T17:58:42.728Z,94.00
2017-12-16T18:01:14.636Z,93.90
2017-12-16T18:03:46.511Z,93.90
2017-12-16T18:06:18.481Z,93.70
2017-12-16T18:08:51.087Z,94.10
2017-12-16T18:11:23.795Z,94.00
2017-12-16T18:13:56.436Z,94.00
2017-12-16T18:16:28.365Z,94.00
2017-12-16T18:19:00.236Z,93.90
2017-12-16T18:21:32.165Z,93.60
2017-12-16T18:24:04.833Z,93.60
2017-12-16T18:26:36.735Z,93.60
2017-12-16T18:29:08.615Z,93.60
2017-12-16T18:31:40.566Z,93.50
2017-12-16T18:34:12.436Z,93.50
2017-12-16T18:36:44.346Z,93.70
2017-12-16T18:39:16.987Z,93.50
2017-12-16T18:41:48.933Z,93.50
2017-12-16T18:44:20.804Z,93.50
2017-12-16T18:46:52.713Z,93.40
2017-12-16T18:49:24.892Z,93.60
2017-12-16T18:51:56.836Z,93.60
2017-12-16T18:54:29.480Z,93.50
2017-12-16T18:57:01.370Z,93.40
2017-12-16T18:59:34.003Z,93.30
2017-12-16T19:02:05.894Z,93.30
2017-12-16T19:04:37.771Z,93.60
2017-12-16T19:07:10.468Z,93.60
2017-12-16T19:09:42.351Z,93.60
2017-12-16T19:12:14.282Z,93.50
2017-12-16T19:14:46.919Z,93.50
2017-12-16T19:17:18.843Z,93.50
2017-12-16T19:19:50.720Z,93.80
2017-12-16T19:22:22.659Z,93.50
2017-12-16T19:24:54.816Z,93.20
2017-12-16T19:27:26.719Z,93.00
2017-12-16T19:29:58.596Z,93.20
2017-12-16T19:32:30.529Z,93.20
2017-12-16T19:35:02.400Z,93.10
2017-12-16T19:37:34.309Z,93.10
2017-12-16T19:40:06.950Z,93.20
2017-12-16T19:42:38.876Z,93.20
2017-12-16T19:45:10.743Z,93.30
2017-12-16T19:47:42.675Z,93.30
2017-12-16T19:50:14.559Z,93.20
2017-12-16T19:52:46.471Z,93.20
2017-12-16T19:55:18.341Z,93.10
2017-12-16T19:57:50.259Z,93.00
2017-12-16T20:00:22.141Z,92.90
2017-12-16T20:02:54.044Z,93.00
2017-12-16T20:05:25.923Z,92.90
2017-12-16T20:07:57.840Z,92.90
2017-12-16T20:10:30.479Z,93.00
2017-12-16T20:13:02.408Z,93.00
2017-12-16T20:15:34.296Z,92.60
2017-12-16T20:18:06.223Z,92.50
2017-12-16T20:20:38.100Z,92.40
2017-12-16T20:23:10.033Z,92.90
2017-12-16T20:25:42.676Z,93.10
2017-12-16T20:28:14.601Z,93.10
2017-12-16T20:30:46.476Z,92.90
2017-12-16T20:33:18.383Z,93.20
2017-12-16T20:35:51.023Z,93.00
2017-12-16T20:38:22.996Z,93.00
2017-12-16T20:40:54.876Z,92.60
2017-12-16T20:43:27.564Z,92.90
2017-12-16T20:46:00.219Z,93.20
2017-12-16T20:48:32.120Z,93.20
2017-12-16T20:51:04.001Z,93.50
2017-12-16T20:53:35.923Z,93.70
2017-12-16T20:56:08.566Z,93.80
2017-12-16T20:58:40.468Z,93.80
2017-12-16T21:01:13.108Z,94.00
2017-12-16T21:03:45.040Z,94.00
2017-12-16T21:06:16.931Z,94.10
2017-12-16T21:08:48.846Z,94.10
2017-12-16T21:11:20.740Z,94.30
2017-12-16T21:13:52.669Z,94.40
2017-12-16T21:16:24.543Z,94.10
2017-12-16T21:18:56.438Z,94.10
2017-12-16T21:21:28.309Z,94.00
2017-12-16T21:24:00.248Z,93.80
2017-12-16T21:26:32.119Z,94.00
2017-12-16T21:29:04.048Z,94.10
2017-12-16T21:31:35.914Z,93.90
2017-12-16T21:34:07.820Z,93.60
2017-12-16T21:36:40.460Z,93.70
2017-12-16T21:39:12.383Z,93.70
2017-12-16T21:41:44.268Z,93.70
2017-12-16T21:44:16.172Z,93.60
2017-12-16T21:46:48.106Z,93.50
2017-12-16T21:49:19.988Z,93.40
2017-12-16T21:51:51.863Z,93.70
2017-12-16T21:54:24.532Z,93.50
2017-12-16T21:56:56.416Z,93.50
2017-12-16T21:59:29.100Z,93.50
2017-12-16T22:02:00.979Z,93.50
2017-12-16T22:04:32.871Z,93.40
2017-12-16T22:07:04.798Z,93.20
2017-12-16T22:09:36.676Z,93.20
2017-12-16T22:12:08.553Z,93.00
2017-12-16T22:14:40.466Z,93.40
2017-12-16T22:17:12.634Z,93.30
2017-12-16T22:19:44.556Z,93.20
2017-12-16T22:22:16.429Z,93.00
2017-12-16T22:24:49.103Z,93.50
2017-12-16T22:27:20.986Z,93.20
2017-12-16T22:29:53.675Z,93.60
2017-12-16T22:32:25.563Z,93.60
2017-12-16T22:34:57.529Z,93.40
2017-12-16T22:37:29.363Z,93.60
2017-12-16T22:40:01.288Z,93.70
2017-12-16T22:42:33.175Z,93.40
2017-12-16T22:45:05.084Z,93.40
2017-12-16T22:47:36.963Z,93.50
2017-12-16T22:50:08.856Z,93.50
2017-12-16T22:52:40.785Z,93.50
2017-12-16T22:55:12.685Z,93.40
2017-12-16T22:57:44.559Z,93.50
2017-12-16T23:00:16.475Z,93.50
2017-12-16T23:02:49.120Z,93.40
2017-12-16T23:05:21.042Z,93.40
2017-12-16T23:07:52.920Z,93.30
2017-12-16T23:10:24.832Z,93.20
2017-12-16T23:12:57.737Z,93.40
2017-12-16T23:15:29.668Z,93.40
2017-12-16T23:18:01.553Z,93.00
2017-12-16T23:20:34.439Z,93.10
2017-12-16T23:23:06.315Z,93.10
2017-12-16T23:25:38.221Z,93.00
2017-12-16T23:28:10.096Z,93.20
2017-12-16T23:30:42.025Z,93.00
2017-12-16T23:33:13.913Z,93.10
2017-12-16T23:35:46.111Z,93.20
2017-12-16T23:38:17.992Z,93.40
2017-12-16T23:40:49.911Z,93.20
2017-12-16T23:43:22.612Z,93.00
2017-12-16T23:45:54.481Z,93.00
2017-12-16T23:48:26.356Z,93.10
2017-12-16T23:50:58.291Z,93.20
2017-12-16T23:53:30.172Z,93.00
2017-12-16T23:56:02.055Z,93.30
2017-12-16T23:58:33.932Z,93.20
